Time;durP1;ratioP1;P1;durP2;ratioP2;P2;SDS_P1;SDS_P2;PMS_P1;PMS_P2;Temp;Humidity;BMP_temperature;BMP_pressure;BME280_temperature;BME280_humidity;BME280_pressure;Samples;Min_cycle;Max_cycle;Signal;HPM_P1;HPM_P2
2022/04/05 00:00:42;;;;;;;;;;;8.20;99.90;;;;;;10410948;28;105123;-50
2022/04/05 00:05:43;;;;;;;;;;;8.20;99.90;;;;;;10391310;28;86045;-48
2022/04/05 00:10:44;;;;;;;;;;;8.20;99.90;;;;;;10410572;28;84932;-49
2022/04/05 00:15:44;;;;;;;;;;;8.30;99.90;;;;;;10390654;28;85844;-49
2022/04/05 00:20:45;;;;;;;;;;;8.20;99.90;;;;;;10410456;28;84730;-49
2022/04/05 00:25:45;;;;;;;;;;;8.20;99.90;;;;;;10408657;28;84037;-48
2022/04/05 00:30:46;;;;;;;;;;;8.30;99.90;;;;;;10409984;28;84930;-50
2022/04/05 00:35:47;;;;;;;;;;;8.30;99.90;;;;;;10408791;28;85154;-48
2022/04/05 00:40:47;;;;;;;;;;;8.20;99.90;;;;;;10391007;28;87173;-48
2022/04/05 00:45:48;;;;;;;;;;;8.20;99.90;;;;;;10373470;28;86562;-50
2022/04/05 00:50:48;;;;;;;;;;;8.20;99.90;;;;;;10409191;28;84760;-48
2022/04/05 00:55:50;;;;;;;;;;;8.20;99.90;;;;;;10408239;28;84233;-52
2022/04/05 01:00:52;;;;;;;;;;;8.10;99.90;;;;;;10409888;28;84153;-52
2022/04/05 01:05:53;;;;;;;;;;;8.10;99.90;;;;;;10409198;28;84708;-50
2022/04/05 01:10:54;;;;;;;;;;;8.10;99.90;;;;;;10408751;28;84817;-47
2022/04/05 01:15:55;;;;;;;;;;;8.10;99.90;;;;;;10413287;22;84810;-49
2022/04/05 01:20:56;;;;;;;;;;;7.90;99.90;;;;;;10366537;28;85957;-50
2022/04/05 01:25:57;;;;;;;;;;;7.90;99.90;;;;;;10366073;28;84125;-50
2022/04/05 01:30:58;;;;;;;;;;;7.80;99.90;;;;;;10367032;28;84279;-47
2022/04/05 01:35:58;;;;;;;;;;;7.90;99.90;;;;;;10369349;28;84955;-49
2022/04/05 01:41:01;;;;;;;;;;;7.90;99.90;;;;;;10339055;28;86834;-52
2022/04/05 01:46:02;;;;;;;;;;;7.90;99.90;;;;;;10372588;28;84011;-51
2022/04/05 01:51:02;;;;;;;;;;;7.90;99.90;;;;;;10374075;28;84959;-51
2022/04/05 01:56:03;;;;;;;;;;;7.80;99.90;;;;;;10372517;28;84531;-51
2022/04/05 02:01:04;;;;;;;;;;;7.80;99.90;;;;;;10373197;28;84891;-53
2022/04/05 02:06:04;;;;;;;;;;;7.80;99.90;;;;;;10353578;28;85978;-49
2022/04/05 02:11:05;;;;;;;;;;;7.90;99.90;;;;;;10354914;28;84210;-48
2022/04/05 02:16:09;;;;;;;;;;;7.90;99.90;;;;;;10352842;28;84963;-51
2022/04/05 02:21:10;;;;;;;;;;;7.90;99.90;;;;;;10354499;28;86789;-49
2022/04/05 02:26:12;;;;;;;;;;;7.90;99.90;;;;;;10352901;28;86956;-52
2022/04/05 02:31:18;;;;;;;;;;;7.90;99.90;;;;;;10353841;28;86926;-48
2022/04/05 02:36:19;;;;;;;;;;;8.00;99.90;;;;;;10352028;28;85908;-49
2022/04/05 02:41:20;;;;;;;;;;;8.00;99.90;;;;;;10344342;28;86856;-49
2022/04/05 02:46:22;;;;;;;;;;;8.00;99.90;;;;;;10368472;28;85893;-52
2022/04/05 02:51:24;;;;;;;;;;;8.00;99.90;;;;;;10370137;28;86355;-49
2022/04/05 02:56:27;;;;;;;;;;;8.00;99.90;;;;;;10362200;28;85900;-50
2022/04/05 03:01:30;;;;;;;;;;;8.00;99.90;;;;;;10361636;28;85866;-54
2022/04/05 03:06:35;;;;;;;;;;;7.90;99.90;;;;;;10370457;28;84703;-50
2022/04/05 03:11:36;;;;;;;;;;;7.90;99.90;;;;;;10352919;28;86841;-52
2022/04/05 03:16:37;;;;;;;;;;;7.90;99.90;;;;;;10351569;28;86867;-54
2022/04/05 03:21:43;;;;;;;;;;;7.90;99.90;;;;;;10369213;28;86668;-51
2022/04/05 03:26:43;;;;;;;;;;;8.00;99.90;;;;;;10369847;28;84072;-50
2022/04/05 03:31:45;;;;;;;;;;;7.90;99.90;;;;;;10347341;28;85986;-50
2022/04/05 03:36:46;;;;;;;;;;;7.90;99.90;;;;;;10365357;28;86971;-48
2022/04/05 03:41:47;;;;;;;;;;;7.90;99.90;;;;;;10368317;28;84932;-54
2022/04/05 03:46:48;;;;;;;;;;;7.90;99.90;;;;;;10369658;28;84216;-52
2022/04/05 03:51:50;;;;;;;;;;;7.90;99.90;;;;;;10368417;28;86940;-55
2022/04/05 03:56:50;;;;;;;;;;;7.90;99.90;;;;;;10367087;28;85891;-53
2022/04/05 04:01:56;;;;;;;;;;;7.90;99.90;;;;;;10368229;28;86863;-54
2022/04/05 04:06:57;;;;;;;;;;;7.90;99.90;;;;;;10367093;28;86317;-51
2022/04/05 04:12:00;;;;;;;;;;;7.90;99.90;;;;;;10366132;28;86888;-54
2022/04/05 04:17:01;;;;;;;;;;;7.90;99.90;;;;;;10347757;28;86937;-48
2022/04/05 04:22:02;;;;;;;;;;;7.90;99.90;;;;;;10349410;28;86226;-53
2022/04/05 04:27:06;;;;;;;;;;;7.90;99.90;;;;;;10348450;28;85736;-50
2022/04/05 04:32:07;;;;;;;;;;;8.00;99.90;;;;;;10349501;28;86960;-50
2022/04/05 04:37:08;;;;;;;;;;;7.90;99.90;;;;;;10366637;28;84262;-51
2022/04/05 04:42:08;;;;;;;;;;;7.90;99.90;;;;;;10366038;28;84734;-51
2022/04/05 04:47:09;;;;;;;;;;;7.90;99.90;;;;;;10371134;28;84245;-52
2022/04/05 04:52:10;;;;;;;;;;;7.90;99.90;;;;;;10349376;28;85950;-53
2022/04/05 04:57:10;;;;;;;;;;;7.90;99.90;;;;;;10368021;28;84370;-52
2022/04/05 05:02:11;;;;;;;;;;;8.00;99.90;;;;;;10375776;28;84139;-54
2022/04/05 05:07:14;;;;;;;;;;;7.90;99.90;;;;;;10347819;28;85107;-52
2022/04/05 05:12:14;;;;;;;;;;;8.00;99.90;;;;;;10354807;28;84275;-49
2022/04/05 05:17:15;;;;;;;;;;;8.00;99.90;;;;;;10377693;28;85173;-49
2022/04/05 05:22:15;;;;;;;;;;;8.00;99.90;;;;;;10373874;28;85113;-51
2022/04/05 05:27:16;;;;;;;;;;;8.10;99.90;;;;;;10373190;28;84252;-54
2022/04/05 05:32:16;;;;;;;;;;;8.10;99.90;;;;;;10371393;28;84814;-50
2022/04/05 05:37:17;;;;;;;;;;;8.10;99.90;;;;;;10399895;28;84122;-47
2022/04/05 05:42:17;;;;;;;;;;;8.10;99.90;;;;;;10396712;28;84830;-53
2022/04/05 05:47:18;;;;;;;;;;;8.10;99.90;;;;;;10377394;28;85660;-49
2022/04/05 05:52:18;;;;;;;;;;;8.10;99.90;;;;;;10374283;28;84932;-51
2022/04/05 05:57:19;;;;;;;;;;;8.10;99.90;;;;;;10371352;28;84936;-50
2022/04/05 06:02:20;;;;;;;;;;;8.20;99.90;;;;;;10376018;28;84847;-64
2022/04/05 06:07:20;;;;;;;;;;;8.20;99.90;;;;;;10371200;28;84258;-53
2022/04/05 06:12:21;;;;;;;;;;;8.20;99.90;;;;;;10359630;28;87029;-49
2022/04/05 06:17:21;;;;;;;;;;;8.30;99.90;;;;;;10369044;28;84740;-50
2022/04/05 06:22:22;;;;;;;;;;;8.30;99.90;;;;;;10354473;28;85946;-51
2022/04/05 06:27:23;;;;;;;;;;;8.20;99.90;;;;;;10373691;28;86995;-50
2022/04/05 06:32:24;;;;;;;;;;;8.30;99.90;;;;;;10409376;28;84024;-49
2022/04/05 06:37:24;;;;;;;;;;;8.30;99.90;;;;;;10396877;28;84932;-51
2022/04/05 06:42:25;;;;;;;;;;;8.30;99.90;;;;;;10394056;28;84947;-50
2022/04/05 06:47:26;;;;;;;;;;;8.40;99.90;;;;;;10393063;28;85895;-50
2022/04/05 06:52:26;;;;;;;;;;;8.40;99.90;;;;;;10412259;28;84848;-54
2022/04/05 06:57:27;;;;;;;;;;;8.50;99.90;;;;;;10411625;28;85916;-51
2022/04/05 07:02:27;;;;;;;;;;;8.50;99.90;;;;;;10411893;28;84206;-51
2022/04/05 07:07:28;;;;;;;;;;;8.60;99.90;;;;;;10411233;28;84726;-51
2022/04/05 07:12:28;;;;;;;;;;;8.70;99.90;;;;;;10411614;28;85600;-50
2022/04/05 07:17:29;;;;;;;;;;;8.80;99.90;;;;;;10400268;22;85294;-57
2022/04/05 07:22:29;;;;;;;;;;;8.80;99.90;;;;;;10369982;28;84320;-57
2022/04/05 07:27:30;;;;;;;;;;;9.00;99.90;;;;;;10368469;28;85130;-55
2022/04/05 07:32:34;;;;;;;;;;;9.10;99.90;;;;;;10367946;28;84125;-55
2022/04/05 07:37:35;;;;;;;;;;;8.90;99.90;;;;;;10349240;28;86538;-57
2022/04/05 07:42:43;;;;;;;;;;;9.00;99.90;;;;;;10368746;28;84866;-57
2022/04/05 07:47:44;;;;;;;;;;;9.00;99.90;;;;;;10365938;28;84178;-57
2022/04/05 07:52:45;;;;;;;;;;;9.10;99.90;;;;;;10368201;28;84734;-56
2022/04/05 07:57:46;;;;;;;;;;;9.00;99.90;;;;;;10367316;28;84939;-57
2022/04/05 08:02:47;;;;;;;;;;;9.10;99.90;;;;;;10368263;28;84091;-54
2022/04/05 08:07:47;;;;;;;;;;;9.20;99.90;;;;;;10366590;28;90170;-55
2022/04/05 08:12:48;;;;;;;;;;;9.40;99.90;;;;;;10367941;28;84923;-58
2022/04/05 08:17:50;;;;;;;;;;;9.30;99.90;;;;;;10366244;28;86105;-57
2022/04/05 08:22:50;;;;;;;;;;;9.40;99.90;;;;;;10349578;28;86990;-59
2022/04/05 08:27:51;;;;;;;;;;;9.40;99.90;;;;;;10366484;28;84058;-58
2022/04/05 08:32:52;;;;;;;;;;;9.50;99.90;;;;;;10367841;28;84835;-57
2022/04/05 08:37:53;;;;;;;;;;;9.50;99.90;;;;;;10365732;28;84063;-58
2022/04/05 08:42:54;;;;;;;;;;;9.50;99.90;;;;;;10368612;28;85138;-58
2022/04/05 08:47:56;;;;;;;;;;;9.60;99.90;;;;;;10371977;28;84945;-57
2022/04/05 08:52:59;;;;;;;;;;;9.70;99.90;;;;;;10374669;28;84259;-57
2022/04/05 08:58:00;;;;;;;;;;;9.70;99.90;;;;;;10373083;28;84109;-53
2022/04/05 09:03:05;;;;;;;;;;;9.70;99.90;;;;;;10373725;28;84019;-57
2022/04/05 09:08:25;;;;;;;;;;;9.70;99.90;;;;;;10373251;28;84174;-57
2022/04/05 09:13:26;;;;;;;;;;;9.60;99.90;;;;;;10373312;28;84717;-57
2022/04/05 09:18:45;;;;;;;;;;;9.70;99.90;;;;;;10371717;28;85100;-57
2022/04/05 09:23:47;;;;;;;;;;;9.70;99.90;;;;;;10354943;28;84779;-56
2022/04/05 09:28:49;;;;;;;;;;;9.80;99.90;;;;;;10354626;28;84365;-55
2022/04/05 09:34:03;;;;;;;;;;;9.80;99.90;;;;;;10373396;28;84800;-55
2022/04/05 09:39:14;;;;;;;;;;;9.70;99.90;;;;;;10372728;28;84861;-54
2022/04/05 09:44:25;;;;;;;;;;;9.80;99.90;;;;;;10371300;28;84913;-54
2022/04/05 09:49:36;;;;;;;;;;;10.00;99.90;;;;;;10372886;28;84986;-55
2022/04/05 09:54:36;;;;;;;;;;;10.20;99.90;;;;;;10372361;28;86703;-58
2022/04/05 09:59:38;;;;;;;;;;;10.20;99.90;;;;;;10373214;28;84882;-54
2022/04/05 10:04:59;;;;;;;;;;;10.40;99.90;;;;;;10374264;28;83993;-56
2022/04/05 10:10:02;;;;;;;;;;;10.40;99.90;;;;;;10354624;28;84272;-55
2022/04/05 10:15:02;;;;;;;;;;;10.40;99.90;;;;;;10354756;28;84275;-58
2022/04/05 10:20:03;;;;;;;;;;;10.40;99.90;;;;;;10353354;28;87489;-56
2022/04/05 10:25:04;;;;;;;;;;;10.70;99.90;;;;;;10371943;28;84931;-53
2022/04/05 10:30:10;;;;;;;;;;;11.10;99.90;;;;;;10352796;28;86290;-57
2022/04/05 10:35:12;;;;;;;;;;;11.70;99.90;;;;;;10371359;28;86380;-56
2022/04/05 10:40:14;;;;;;;;;;;12.10;99.90;;;;;;10371339;28;84048;-55
2022/04/05 10:45:18;;;;;;;;;;;12.40;99.90;;;;;;10371096;28;85369;-56
2022/04/05 10:50:19;;;;;;;;;;;12.40;99.90;;;;;;10370381;28;84777;-58
2022/04/05 10:55:20;;;;;;;;;;;12.40;99.90;;;;;;10370583;28;84209;-55
2022/04/05 11:00:22;;;;;;;;;;;12.70;99.90;;;;;;10370518;28;84988;-54
2022/04/05 11:05:24;;;;;;;;;;;13.10;99.90;;;;;;10369071;28;84920;-55
2022/04/05 11:10:29;;;;;;;;;;;13.10;99.90;;;;;;10369501;28;84109;-58
2022/04/05 11:15:39;;;;;;;;;;;13.00;99.90;;;;;;10368836;28;85165;-55
2022/04/05 11:20:44;;;;;;;;;;;13.00;99.90;;;;;;10370104;28;84988;-57
2022/04/05 11:25:45;;;;;;;;;;;13.30;99.90;;;;;;10350208;28;87011;-58
2022/04/05 11:30:55;;;;;;;;;;;13.50;99.90;;;;;;10369275;28;85119;-57
2022/04/05 11:35:57;;;;;;;;;;;13.60;99.90;;;;;;10350518;28;85101;-58
2022/04/05 11:41:02;;;;;;;;;;;13.70;1.00;;;;;;10369012;28;84131;-57
2022/04/05 11:46:11;;;;;;;;;;;13.90;1.00;;;;;;10348352;28;85862;-53
2022/04/05 11:51:13;;;;;;;;;;;14.30;1.00;;;;;;10351039;28;85156;-56
2022/04/05 11:56:21;;;;;;;;;;;14.30;1.00;;;;;;10349744;28;84521;-56
2022/04/05 12:01:26;;;;;;;;;;;13.90;1.00;;;;;;10368175;28;84811;-56
2022/04/05 12:06:32;;;;;;;;;;;13.90;1.00;;;;;;10367628;28;84214;-55
2022/04/05 12:11:33;;;;;;;;;;;13.90;1.00;;;;;;10351435;28;85330;-58
2022/04/05 12:16:49;;;;;;;;;;;13.70;1.00;;;;;;10350417;28;86542;-54
2022/04/05 12:21:53;;;;;;;;;;;13.50;10.70;;;;;;10369212;28;84015;-57
2022/04/05 12:26:57;;;;;;;;;;;13.20;99.90;;;;;;10369131;28;84281;-55
2022/04/05 12:32:04;;;;;;;;;;;13.00;99.90;;;;;;10369258;28;84185;-57
2022/04/05 12:37:05;;;;;;;;;;;12.70;99.90;;;;;;10367672;28;84917;-57
2022/04/05 12:42:07;;;;;;;;;;;12.70;99.90;;;;;;10367383;28;85230;-57
2022/04/05 12:47:09;;;;;;;;;;;12.50;99.90;;;;;;10366499;28;84132;-57
2022/04/05 12:52:12;;;;;;;;;;;12.30;99.90;;;;;;10367370;28;85012;-56
2022/04/05 12:57:13;;;;;;;;;;;12.30;99.90;;;;;;10366086;28;84230;-55
2022/04/05 13:02:15;;;;;;;;;;;12.40;99.90;;;;;;10367202;28;84376;-57
2022/04/05 13:07:16;;;;;;;;;;;12.50;99.90;;;;;;10367308;28;84934;-56
2022/04/05 13:12:17;;;;;;;;;;;12.70;99.90;;;;;;10366995;28;84908;-54
2022/04/05 13:17:18;;;;;;;;;;;12.90;99.90;;;;;;10389364;22;84002;-49
2022/04/05 13:22:19;;;;;;;;;;;13.00;94.30;;;;;;10365861;28;86254;-48
2022/04/05 13:27:21;;;;;;;;;;;13.20;82.80;;;;;;10366398;28;84679;-51
2022/04/05 13:32:25;;;;;;;;;;;13.20;18.60;;;;;;10371770;28;84811;-49
2022/04/05 13:37:25;;;;;;;;;;;13.40;1.00;;;;;;10354990;28;84181;-52
2022/04/05 13:42:26;;;;;;;;;;;13.30;1.00;;;;;;10373828;28;84795;-50
2022/04/05 13:47:26;;;;;;;;;;;13.40;1.00;;;;;;10354997;28;84996;-54
2022/04/05 13:52:27;;;;;;;;;;;13.30;1.00;;;;;;10374218;28;84230;-53
2022/04/05 13:57:27;;;;;;;;;;;13.30;1.00;;;;;;10372858;28;84142;-50
2022/04/05 14:02:29;;;;;;;;;;;13.40;1.00;;;;;;10372845;28;85307;-47
2022/04/05 14:07:31;;;;;;;;;;;13.50;1.00;;;;;;10371837;28;84090;-49
2022/04/05 14:12:32;;;;;;;;;;;13.50;1.00;;;;;;10372876;28;84206;-51
2022/04/05 14:17:37;;;;;;;;;;;13.40;1.00;;;;;;10371670;28;84098;-49
2022/04/05 14:22:37;;;;;;;;;;;13.30;1.00;;;;;;10354195;28;86308;-51
2022/04/05 14:27:38;;;;;;;;;;;13.10;15.40;;;;;;10353400;28;84169;-48
2022/04/05 14:32:39;;;;;;;;;;;13.00;99.90;;;;;;10372090;28;83974;-53
2022/04/05 14:37:41;;;;;;;;;;;12.90;99.90;;;;;;10371598;28;84722;-54
2022/04/05 14:42:41;;;;;;;;;;;12.90;99.90;;;;;;10371879;28;84717;-48
2022/04/05 14:47:42;;;;;;;;;;;12.80;99.90;;;;;;10370064;28;84854;-51
2022/04/05 14:52:42;;;;;;;;;;;12.60;99.90;;;;;;10371814;28;84274;-52
2022/04/05 14:57:43;;;;;;;;;;;12.70;99.90;;;;;;10371024;28;84358;-52
2022/04/05 15:02:45;;;;;;;;;;;12.80;99.90;;;;;;10371410;28;85040;-54
2022/04/05 15:07:45;;;;;;;;;;;12.70;99.90;;;;;;10352678;28;84270;-50
2022/04/05 15:12:46;;;;;;;;;;;12.70;99.90;;;;;;10370967;28;84955;-50
2022/04/05 15:17:47;;;;;;;;;;;12.60;99.90;;;;;;10369891;28;84704;-49
2022/04/05 15:22:47;;;;;;;;;;;12.50;99.90;;;;;;10370545;28;83983;-49
2022/04/05 15:27:48;;;;;;;;;;;12.60;99.90;;;;;;10351404;28;84245;-50
2022/04/05 15:32:49;;;;;;;;;;;12.50;99.90;;;;;;10371070;28;85233;-51
2022/04/05 15:37:49;;;;;;;;;;;12.50;99.90;;;;;;10369654;28;84042;-54
2022/04/05 15:42:50;;;;;;;;;;;12.50;99.90;;;;;;10352456;28;84044;-52
2022/04/05 15:47:51;;;;;;;;;;;12.40;99.90;;;;;;10349542;28;86309;-50
2022/04/05 15:52:51;;;;;;;;;;;12.30;99.90;;;;;;10350828;28;85103;-49
2022/04/05 15:57:52;;;;;;;;;;;12.10;99.90;;;;;;10368301;28;84869;-51
2022/04/05 16:02:52;;;;;;;;;;;12.10;99.90;;;;;;10370220;28;84332;-49
2022/04/05 16:07:53;;;;;;;;;;;11.90;99.90;;;;;;10350053;28;84889;-52
2022/04/05 16:12:54;;;;;;;;;;;11.90;99.90;;;;;;10369258;28;84729;-50
2022/04/05 16:17:54;;;;;;;;;;;11.80;99.90;;;;;;10366962;28;84061;-50
2022/04/05 16:22:55;;;;;;;;;;;11.80;99.90;;;;;;10348614;28;85059;-50
2022/04/05 16:27:56;;;;;;;;;;;11.80;99.90;;;;;;10366919;28;84819;-52
2022/04/05 16:32:56;;;;;;;;;;;11.90;99.90;;;;;;10349870;28;87235;-52
2022/04/05 16:37:57;;;;;;;;;;;11.90;99.90;;;;;;10348213;28;86075;-49
2022/04/05 16:42:57;;;;;;;;;;;11.90;99.90;;;;;;10365880;28;84168;-52
2022/04/05 16:47:58;;;;;;;;;;;11.80;99.90;;;;;;10367784;28;84124;-51
2022/04/05 16:52:59;;;;;;;;;;;11.80;99.90;;;;;;10348573;28;86626;-51
2022/04/05 16:58:00;;;;;;;;;;;11.80;99.90;;;;;;10366264;28;84118;-50
2022/04/05 17:03:00;;;;;;;;;;;11.80;99.90;;;;;;10362476;28;85684;-47
2022/04/05 17:08:01;;;;;;;;;;;11.80;99.90;;;;;;10354853;28;86489;-47
2022/04/05 17:13:02;;;;;;;;;;;11.80;99.90;;;;;;10375354;28;84924;-48
2022/04/05 17:18:03;;;;;;;;;;;11.80;99.90;;;;;;10373306;28;84469;-49
2022/04/05 17:23:03;;;;;;;;;;;11.80;99.90;;;;;;10375105;28;84113;-47
2022/04/05 17:28:05;;;;;;;;;;;11.80;99.90;;;;;;10356834;28;86347;-45
2022/04/05 17:33:05;;;;;;;;;;;11.80;99.90;;;;;;10374565;28;84122;-51
2022/04/05 17:38:07;;;;;;;;;;;11.80;99.90;;;;;;10374204;28;84866;-48
2022/04/05 17:43:08;;;;;;;;;;;11.80;99.90;;;;;;10356484;28;87732;-48
2022/04/05 17:48:09;;;;;;;;;;;11.80;99.90;;;;;;10373517;28;85022;-50
2022/04/05 17:53:09;;;;;;;;;;;11.70;99.90;;;;;;10374391;28;83933;-50
2022/04/05 17:58:10;;;;;;;;;;;11.70;99.90;;;;;;10374636;28;84006;-46
2022/04/05 18:03:11;;;;;;;;;;;11.50;99.90;;;;;;10373247;28;84731;-50
2022/04/05 18:08:11;;;;;;;;;;;11.50;99.90;;;;;;10372396;28;86470;-49
2022/04/05 18:13:16;;;;;;;;;;;11.40;99.90;;;;;;10376043;28;84849;-48
2022/04/05 18:18:20;;;;;;;;;;;11.30;99.90;;;;;;10374974;28;84309;-48
2022/04/05 18:23:21;;;;;;;;;;;11.30;99.90;;;;;;10358272;28;84022;-47
2022/04/05 18:28:22;;;;;;;;;;;11.20;99.90;;;;;;10374216;28;84964;-51
2022/04/05 18:33:22;;;;;;;;;;;11.30;99.90;;;;;;10376084;28;84155;-47
2022/04/05 18:38:23;;;;;;;;;;;11.30;99.90;;;;;;10372741;28;86679;-50
2022/04/05 18:43:24;;;;;;;;;;;11.30;99.90;;;;;;10375331;28;85045;-50
2022/04/05 18:48:25;;;;;;;;;;;11.30;99.90;;;;;;10374974;28;85394;-49
2022/04/05 18:53:25;;;;;;;;;;;11.30;99.90;;;;;;10379048;28;84160;-51
2022/04/05 18:58:26;;;;;;;;;;;11.30;99.90;;;;;;10380291;28;85017;-51
2022/04/05 19:03:26;;;;;;;;;;;11.30;99.90;;;;;;10380965;28;85041;-49
2022/04/05 19:08:27;;;;;;;;;;;11.30;99.90;;;;;;10357354;28;84159;-49
2022/04/05 19:13:28;;;;;;;;;;;11.30;99.90;;;;;;10356714;28;84004;-47
2022/04/05 19:18:29;;;;;;;;;;;11.30;99.90;;;;;;10433464;22;84824;-55
2022/04/05 19:23:31;;;;;;;;;;;11.30;99.90;;;;;;10454838;28;84184;-55
2022/04/05 19:28:31;;;;;;;;;;;11.20;99.90;;;;;;10427106;28;84725;-57
2022/04/05 19:33:33;;;;;;;;;;;11.20;99.90;;;;;;10413589;28;85014;-56
2022/04/05 19:38:35;;;;;;;;;;;11.10;99.90;;;;;;10411989;28;84871;-58
2022/04/05 19:43:36;;;;;;;;;;;11.20;99.90;;;;;;10414026;28;84232;-55
2022/04/05 19:48:38;;;;;;;;;;;11.20;99.90;;;;;;10414469;28;84927;-56
2022/04/05 19:53:38;;;;;;;;;;;11.10;99.90;;;;;;10394714;28;84975;-55
2022/04/05 19:58:39;;;;;;;;;;;11.10;99.90;;;;;;10412987;28;85013;-57
2022/04/05 20:03:39;;;;;;;;;;;11.00;99.90;;;;;;10413465;28;84900;-54
2022/04/05 20:08:40;;;;;;;;;;;11.00;99.90;;;;;;10396403;28;85032;-54
2022/04/05 20:13:41;;;;;;;;;;;10.90;99.90;;;;;;10416121;28;85035;-56
2022/04/05 20:18:42;;;;;;;;;;;10.90;99.90;;;;;;10395441;28;87113;-56
2022/04/05 20:23:42;;;;;;;;;;;10.90;99.90;;;;;;10414421;28;84860;-54
2022/04/05 20:28:43;;;;;;;;;;;10.90;99.90;;;;;;10412013;28;84785;-53
2022/04/05 20:33:44;;;;;;;;;;;10.90;99.90;;;;;;10412412;28;85043;-54
2022/04/05 20:38:44;;;;;;;;;;;10.80;99.90;;;;;;10392829;27;85898;-53
2022/04/05 20:43:45;;;;;;;;;;;10.80;99.90;;;;;;10423534;28;84274;-55
2022/04/05 20:48:45;;;;;;;;;;;10.80;99.90;;;;;;10427183;28;84043;-55
2022/04/05 20:53:46;;;;;;;;;;;10.90;99.90;;;;;;10404300;28;84925;-52
2022/04/05 20:58:46;;;;;;;;;;;10.90;99.90;;;;;;10413770;28;84961;-54
2022/04/05 21:03:47;;;;;;;;;;;10.80;99.90;;;;;;10429934;28;84334;-54
2022/04/05 21:08:48;;;;;;;;;;;10.80;99.90;;;;;;10412948;28;84105;-56
2022/04/05 21:13:48;;;;;;;;;;;10.80;99.90;;;;;;10423894;28;84912;-57
2022/04/05 21:18:49;;;;;;;;;;;10.80;99.90;;;;;;10421701;28;84993;-57
2022/04/05 21:23:50;;;;;;;;;;;10.80;99.90;;;;;;10404847;28;86737;-53
2022/04/05 21:34:10;;;;;;;;;;;10.80;99.90;;;;;;10429645;28;85268;-54
2022/04/05 21:39:11;;;;;;;;;;;10.70;99.90;;;;;;10433579;27;84573;-57
2022/04/05 21:44:12;;;;;;;;;;;10.70;99.90;;;;;;10422869;28;84404;-56
2022/04/05 21:49:12;;;;;;;;;;;10.70;99.90;;;;;;10420771;28;84717;-55
2022/04/05 21:54:13;;;;;;;;;;;10.70;99.90;;;;;;10401444;28;84914;-56
2022/04/05 21:59:14;;;;;;;;;;;10.70;99.90;;;;;;10409549;28;84897;-54
2022/04/05 22:04:14;;;;;;;;;;;10.70;99.90;;;;;;10414787;28;84878;-57
2022/04/05 22:09:15;;;;;;;;;;;10.60;99.90;;;;;;10403556;28;86254;-57
2022/04/05 22:14:16;;;;;;;;;;;10.70;99.90;;;;;;10433961;28;85013;-58
2022/04/05 22:19:16;;;;;;;;;;;10.80;99.90;;;;;;10431653;28;84057;-57
2022/04/05 22:24:17;;;;;;;;;;;10.70;99.90;;;;;;10415930;28;85955;-58
2022/04/05 22:29:17;;;;;;;;;;;10.70;99.90;;;;;;10408927;28;84012;-58
2022/04/05 22:34:18;;;;;;;;;;;10.70;99.90;;;;;;10417675;28;84043;-56
2022/04/05 22:39:19;;;;;;;;;;;10.60;99.90;;;;;;10414288;28;84893;-58
2022/04/05 22:44:19;;;;;;;;;;;10.60;99.90;;;;;;10414999;28;84698;-57
2022/04/05 22:49:20;;;;;;;;;;;10.60;99.90;;;;;;10412653;28;84239;-56
2022/04/05 22:54:21;;;;;;;;;;;10.60;99.90;;;;;;10413856;28;84771;-56
2022/04/05 22:59:22;;;;;;;;;;;10.60;99.90;;;;;;10405385;28;84574;-54
2022/04/05 23:04:22;;;;;;;;;;;10.50;99.90;;;;;;10412823;28;84879;-54
2022/04/05 23:09:23;;;;;;;;;;;10.50;99.90;;;;;;10412434;28;84855;-56
2022/04/05 23:14:27;;;;;;;;;;;10.50;99.90;;;;;;10413183;28;84232;-53
2022/04/05 23:19:27;;;;;;;;;;;10.50;99.90;;;;;;10410281;28;85010;-52
2022/04/05 23:24:28;;;;;;;;;;;10.60;99.90;;;;;;10412007;28;84038;-52
2022/04/05 23:29:29;;;;;;;;;;;10.60;99.90;;;;;;10392151;28;85063;-52
2022/04/05 23:34:31;;;;;;;;;;;10.60;99.90;;;;;;10411091;28;84112;-54
2022/04/05 23:39:31;;;;;;;;;;;10.60;99.90;;;;;;10410177;28;84131;-57
2022/04/05 23:44:32;;;;;;;;;;;10.60;99.90;;;;;;10411038;28;84149;-56
2022/04/05 23:49:34;;;;;;;;;;;10.60;99.90;;;;;;10409560;28;84972;-57
2022/04/05 23:54:34;;;;;;;;;;;10.50;99.90;;;;;;10410656;28;84115;-53
2022/04/05 23:59:35;;;;;;;;;;;10.60;99.90;;;;;;10405321;28;84652;-52
